createdAt,value
2019-01-19T00:01:54.607Z,101616.63
2019-01-19T00:05:15.061Z,101619.23
2019-01-19T00:08:12.763Z,101623.36
2019-01-19T00:11:49.246Z,101616.04
2019-01-19T00:15:00.042Z,101621.56
2019-01-19T00:18:27.433Z,101621.56
2019-01-19T00:21:30.063Z,101616.37
2019-01-19T00:25:00.639Z,101618.59
2019-01-19T00:28:06.124Z,101608.20
2019-01-19T00:30:52.099Z,101613.63
2019-01-19T00:34:10.233Z,101609.97
2019-01-19T00:36:50.373Z,101612.95
2019-01-19T00:39:59.122Z,101615.77
2019-01-19T00:42:51.649Z,101613.55
2019-01-19T00:45:45.574Z,101620.04
2019-01-19T00:48:27.420Z,101618.38
2019-01-19T00:51:39.571Z,101615.12
2019-01-19T00:54:35.086Z,101613.23
2019-01-19T00:57:22.312Z,101618.05
2019-01-19T01:00:00.571Z,101619.81
2019-01-19T01:03:24.396Z,101609.63
2019-01-19T01:06:32.448Z,101606.89
2019-01-19T01:09:54.029Z,101609.20
2019-01-19T01:12:57.922Z,101607.44
2019-01-19T01:15:55.807Z,101609.23
2019-01-19T01:18:51.228Z,101608.69
2019-01-19T01:22:17.305Z,101608.08
2019-01-19T01:25:37.552Z,101610.95
2019-01-19T01:29:01.751Z,101613.55
2019-01-19T01:31:58.042Z,101606.28
2019-01-19T01:34:45.364Z,101614.91
2019-01-19T01:37:43.559Z,101608.88
2019-01-19T01:41:16.984Z,101612.53
2019-01-19T01:44:05.508Z,101617.63
2019-01-19T01:47:39.152Z,101619.07
2019-01-19T01:50:18.721Z,101618.28
2019-01-19T01:53:13.056Z,101618.47
2019-01-19T01:55:47.577Z,101617.17
2019-01-19T01:58:43.698Z,101612.48
2019-01-19T02:01:46.794Z,101612.26
2019-01-19T02:04:54.150Z,101616.30
2019-01-19T02:08:17.302Z,101611.79
2019-01-19T02:11:29.580Z,101602.70
2019-01-19T02:14:51.000Z,101603.59
2019-01-19T02:17:51.954Z,101597.75
2019-01-19T02:21:00.107Z,101596.45
2019-01-19T02:24:08.270Z,101605.67
2019-01-19T02:27:09.769Z,101598.81
2019-01-19T02:30:09.031Z,101590.11
2019-01-19T02:33:17.808Z,101590.11
2019-01-19T02:36:16.749Z,101588.30
2019-01-19T02:39:29.352Z,101587.52
2019-01-19T02:42:36.599Z,101593.48
2019-01-19T02:45:48.990Z,101581.73
2019-01-19T02:48:56.140Z,101581.73
2019-01-19T02:52:10.100Z,101594.38
2019-01-19T02:55:25.305Z,101591.64
2019-01-19T02:58:36.063Z,101591.50
2019-01-19T03:01:44.309Z,101592.42
2019-01-19T03:04:51.646Z,101582.93
2019-01-19T03:08:16.263Z,101581.49
2019-01-19T03:11:09.795Z,101576.26
2019-01-19T03:14:23.092Z,101576.26
2019-01-19T03:17:44.339Z,101577.00
2019-01-19T03:20:36.727Z,101585.06
2019-01-19T03:23:29.375Z,101581.40
2019-01-19T03:26:46.247Z,101581.26
2019-01-19T03:29:54.319Z,101583.91
2019-01-19T03:33:12.597Z,101581.41
2019-01-19T03:36:07.069Z,101582.05
2019-01-19T03:39:28.971Z,101586.03
2019-01-19T03:42:29.074Z,101580.52
2019-01-19T03:45:47.266Z,101584.91
2019-01-19T03:48:30.310Z,101582.23
2019-01-19T03:51:25.172Z,101582.87
2019-01-19T03:54:10.617Z,101587.00
2019-01-19T03:57:25.660Z,101578.75
2019-01-19T04:00:20.553Z,101585.87
2019-01-19T04:03:31.860Z,101583.52
2019-01-19T04:06:43.355Z,101584.11
2019-01-19T04:09:51.486Z,101581.61
2019-01-19T04:12:50.426Z,101578.18
2019-01-19T04:16:09.287Z,101577.34
2019-01-19T04:19:24.310Z,101586.50
2019-01-19T04:22:22.043Z,101582.32
2019-01-19T04:25:37.384Z,101582.63
2019-01-19T04:28:08.805Z,101584.94
2019-01-19T04:30:39.969Z,101580.58
2019-01-19T04:33:11.119Z,101583.39
2019-01-19T04:35:42.278Z,101585.14
2019-01-19T04:38:13.599Z,101580.74
2019-01-19T04:40:44.827Z,101580.23
2019-01-19T04:43:16.139Z,101581.34
2019-01-19T04:45:47.324Z,101581.60
2019-01-19T04:48:20.231Z,101578.31
2019-01-19T04:50:51.475Z,101581.12
2019-01-19T04:53:22.670Z,101580.84
2019-01-19T04:55:53.886Z,101578.47
2019-01-19T04:58:25.061Z,101574.67
2019-01-19T05:00:56.303Z,101571.93
2019-01-19T05:03:28.556Z,101577.34
2019-01-19T05:05:59.756Z,101569.64
2019-01-19T05:08:30.971Z,101570.76
2019-01-19T05:11:02.128Z,101572.69
2019-01-19T05:13:33.312Z,101572.91
2019-01-19T05:16:04.470Z,101574.20
2019-01-19T05:18:35.825Z,101569.25
2019-01-19T05:21:07.236Z,101567.66
2019-01-19T05:23:38.678Z,101570.62
2019-01-19T05:26:09.874Z,101572.51
2019-01-19T05:28:41.065Z,101574.58
2019-01-19T05:31:12.391Z,101576.09
2019-01-19T05:33:43.661Z,101573.36
2019-01-19T05:36:14.878Z,101574.51
2019-01-19T05:38:46.048Z,101576.03
2019-01-19T05:41:17.255Z,101570.52
2019-01-19T05:43:48.433Z,101575.55
2019-01-19T05:46:21.462Z,101572.81
2019-01-19T05:48:52.977Z,101568.41
2019-01-19T05:51:24.216Z,101575.98
2019-01-19T05:53:55.434Z,101577.28
2019-01-19T05:56:26.610Z,101580.09
2019-01-19T05:58:57.907Z,101582.02
2019-01-19T06:01:29.562Z,101577.06
2019-01-19T06:04:00.768Z,101578.20
2019-01-19T06:06:31.973Z,101582.67
2019-01-19T06:09:04.148Z,101577.20
2019-01-19T06:11:35.395Z,101574.84
2019-01-19T06:14:06.549Z,101583.75
2019-01-19T06:16:37.751Z,101587.07
2019-01-19T06:19:09.328Z,101583.97
2019-01-19T06:21:49.504Z,101581.97
2019-01-19T06:24:20.764Z,101581.45
2019-01-19T06:26:52.002Z,101577.42
2019-01-19T06:29:23.190Z,101581.11
2019-01-19T06:31:54.369Z,101584.11
2019-01-19T06:34:25.632Z,101585.62
2019-01-19T06:36:56.801Z,101583.40
2019-01-19T06:39:28.098Z,101581.81
2019-01-19T06:41:59.287Z,101583.47
2019-01-19T06:44:30.506Z,101580.73
2019-01-19T06:47:01.845Z,101585.91
2019-01-19T06:49:33.015Z,101581.69
2019-01-19T06:52:04.217Z,101582.83
2019-01-19T06:54:35.432Z,101587.12
2019-01-19T06:57:06.652Z,101585.64
2019-01-19T06:59:37.832Z,101588.07
2019-01-19T07:02:09.073Z,101589.73
2019-01-19T07:04:40.253Z,101585.70
2019-01-19T07:07:11.521Z,101594.61
2019-01-19T07:09:42.705Z,101596.27
2019-01-19T07:12:13.905Z,101598.34
2019-01-19T07:14:45.184Z,101593.02
2019-01-19T07:17:16.370Z,101601.14
2019-01-19T07:19:47.555Z,101601.51
2019-01-19T07:22:18.817Z,101602.28
2019-01-19T07:24:50.108Z,101603.42
2019-01-19T07:27:21.296Z,101605.61
2019-01-19T07:29:52.520Z,101608.59
2019-01-19T07:32:23.668Z,101609.48
2019-01-19T07:34:54.859Z,101612.07
2019-01-19T07:37:27.088Z,101609.48
2019-01-19T07:39:58.296Z,101610.96
2019-01-19T07:42:29.544Z,101612.78
2019-01-19T07:45:00.745Z,101614.07
2019-01-19T07:47:32.234Z,101617.18
2019-01-19T07:50:03.486Z,101616.08
2019-01-19T07:52:34.821Z,101623.62
2019-01-19T07:55:06.670Z,101622.48
2019-01-19T07:57:37.855Z,101620.41
2019-01-19T08:00:13.531Z,101625.37
2019-01-19T08:02:44.758Z,101624.62
2019-01-19T08:05:16.373Z,101636.02
2019-01-19T08:07:47.566Z,101634.50
2019-01-19T08:10:18.975Z,101631.18
2019-01-19T08:12:50.140Z,101631.48
2019-01-19T08:15:23.263Z,101639.40
2019-01-19T08:17:54.451Z,101639.18
2019-01-19T08:20:25.674Z,101637.52
2019-01-19T08:22:56.875Z,101629.91
2019-01-19T08:25:28.016Z,101636.16
2019-01-19T08:27:59.278Z,101635.79
2019-01-19T08:30:31.315Z,101641.11
2019-01-19T08:33:02.526Z,101631.13
2019-01-19T08:35:34.217Z,101630.91
2019-01-19T08:38:05.406Z,101635.72
2019-01-19T08:40:37.468Z,101637.94
2019-01-19T08:43:30.774Z,101643.27
2019-01-19T08:46:02.271Z,101644.49
2019-01-19T08:48:33.701Z,101645.38
2019-01-19T08:51:04.992Z,101652.19
2019-01-19T08:53:37.282Z,101640.69
2019-01-19T08:56:08.483Z,101643.58
2019-01-19T08:58:39.702Z,101647.39
2019-01-19T09:01:11.052Z,101644.59
2019-01-19T09:03:42.282Z,101641.78
2019-01-19T09:06:13.461Z,101643.78
2019-01-19T09:08:44.697Z,101643.16
2019-01-19T09:11:15.993Z,101639.75
2019-01-19T09:13:47.172Z,101637.46
2019-01-19T09:16:20.689Z,101631.69
2019-01-19T09:18:51.880Z,101631.25
2019-01-19T09:21:23.096Z,101625.63
2019-01-19T09:24:17.311Z,101627.06
2019-01-19T09:26:48.550Z,101623.63
2019-01-19T09:29:19.755Z,101629.66
2019-01-19T09:31:50.928Z,101632.95
2019-01-19T09:34:22.167Z,101630.66
2019-01-19T09:36:53.375Z,101637.97
2019-01-19T09:39:24.584Z,101632.72
2019-01-19T09:41:55.804Z,101632.41
2019-01-19T09:44:26.911Z,101633.26
2019-01-19T09:46:58.037Z,101632.41
2019-01-19T09:49:29.187Z,101628.44
2019-01-19T09:52:00.284Z,101632.94
2019-01-19T09:54:31.533Z,101629.34
2019-01-19T09:57:02.740Z,101628.66
2019-01-19T09:59:33.869Z,101633.77
2019-01-19T10:02:05.044Z,101626.97
2019-01-19T10:04:36.245Z,101627.44
2019-01-19T10:07:07.485Z,101627.88
2019-01-19T10:09:38.714Z,101624.97
2019-01-19T10:12:09.939Z,101620.98
2019-01-19T10:14:41.103Z,101621.59
2019-01-19T10:17:12.326Z,101622.02
2019-01-19T10:19:43.516Z,101615.08
2019-01-19T10:22:14.671Z,101611.65
2019-01-19T10:24:45.870Z,101615.97
2019-01-19T10:27:17.091Z,101615.64
2019-01-19T10:29:48.306Z,101616.47
2019-01-19T10:32:19.604Z,101618.05
2019-01-19T10:34:50.770Z,101614.24
2019-01-19T10:37:21.936Z,101618.94
2019-01-19T10:39:53.103Z,101610.30
2019-01-19T10:42:24.465Z,101609.42
2019-01-19T10:44:56.767Z,101599.13
2019-01-19T10:47:27.974Z,101603.98
2019-01-19T10:49:59.194Z,101604.02
2019-01-19T10:52:30.426Z,101598.19
2019-01-19T10:55:01.615Z,101600.75
2019-01-19T10:57:32.777Z,101597.83
2019-01-19T11:00:04.540Z,101597.48
2019-01-19T11:02:36.856Z,101588.94
2019-01-19T11:05:10.544Z,101581.45
2019-01-19T11:07:43.834Z,101582.68
2019-01-19T11:10:17.237Z,101582.34
2019-01-19T11:12:48.405Z,101565.10
2019-01-19T11:15:19.611Z,101577.02
2019-01-19T11:17:50.879Z,101573.90
2019-01-19T11:20:25.671Z,101573.90
2019-01-19T11:22:57.917Z,101573.55
2019-01-19T11:25:29.153Z,101570.70
2019-01-19T11:28:00.375Z,101567.91
2019-01-19T11:30:32.163Z,101567.91
2019-01-19T11:33:03.401Z,101565.34
2019-01-19T11:35:34.563Z,101561.33
2019-01-19T11:38:11.775Z,101560.40
2019-01-19T11:40:39.535Z,101563.32
2019-01-19T11:43:11.503Z,101553.16
2019-01-19T11:45:42.723Z,101558.13
2019-01-19T11:48:14.059Z,101552.44
2019-01-19T11:50:45.375Z,101558.83
2019-01-19T11:53:16.701Z,101550.91
2019-01-19T11:55:47.936Z,101547.02
2019-01-19T11:58:19.100Z,101543.66
2019-01-19T12:00:50.286Z,101540.95
2019-01-19T12:03:21.588Z,101543.19
2019-01-19T12:05:52.821Z,101543.19
2019-01-19T12:08:24.007Z,101538.24
2019-01-19T12:10:55.215Z,101541.27
2019-01-19T12:13:26.413Z,101535.18
2019-01-19T12:15:57.570Z,101526.08
2019-01-19T12:18:28.817Z,101531.28
2019-01-19T12:20:59.991Z,101527.38
2019-01-19T12:23:31.246Z,101521.67
2019-01-19T12:26:02.481Z,101523.38
2019-01-19T12:28:33.685Z,101519.48
2019-01-19T12:31:05.294Z,101520.66
2019-01-19T12:33:36.549Z,101515.81
2019-01-19T12:36:07.753Z,101514.92
2019-01-19T12:38:39.050Z,101511.55
2019-01-19T12:41:10.414Z,101503.07
2019-01-19T12:43:41.679Z,101505.16
2019-01-19T12:46:13.060Z,101502.42
2019-01-19T12:48:44.301Z,101503.72
2019-01-19T12:51:15.501Z,101491.86
2019-01-19T12:53:46.656Z,101494.98
2019-01-19T12:56:17.889Z,101492.37
2019-01-19T12:58:49.200Z,101488.73
2019-01-19T13:01:20.468Z,101497.72
2019-01-19T13:03:51.693Z,101490.14
2019-01-19T13:06:47.798Z,101493.00
2019-01-19T13:09:27.837Z,101490.79
2019-01-19T13:12:19.805Z,101489.34
2019-01-19T13:15:03.178Z,101483.48
2019-01-19T13:18:30.727Z,101487.03
2019-01-19T13:21:47.716Z,101479.06
2019-01-19T13:25:01.879Z,101483.75
2019-01-19T13:28:11.651Z,101484.92
2019-01-19T13:30:54.738Z,101476.41
2019-01-19T13:33:43.726Z,101468.33
2019-01-19T13:36:40.915Z,101463.77
2019-01-19T13:39:23.197Z,101460.90
2019-01-19T13:42:43.909Z,101464.81
2019-01-19T13:45:55.341Z,101454.22
2019-01-19T13:49:01.995Z,101460.36
2019-01-19T13:51:57.338Z,101452.92
2019-01-19T13:55:00.666Z,101455.83
2019-01-19T13:57:55.653Z,101459.32
2019-01-19T14:51:40.260Z,101419.08
2019-01-19T14:54:46.633Z,101426.53
2019-01-19T14:57:52.341Z,101427.43
2019-01-19T15:01:11.184Z,101422.09
2019-01-19T15:04:29.841Z,101421.44
2019-01-19T15:07:42.412Z,101421.56
2019-01-19T15:10:45.228Z,101418.17
2019-01-19T15:13:57.477Z,101416.13
2019-01-19T15:17:28.249Z,101420.92
2019-01-19T15:20:34.149Z,101414.41
2019-01-19T15:23:51.979Z,101419.88
2019-01-19T15:26:58.876Z,101412.05
2019-01-19T15:29:55.841Z,101411.12
2019-01-19T15:32:53.373Z,101403.58
2019-01-19T15:36:08.911Z,101410.88
2019-01-19T15:39:23.726Z,101411.12
2019-01-19T15:42:29.092Z,101414.87
2019-01-19T15:45:32.163Z,101411.22
2019-01-19T15:49:06.046Z,101409.23
2019-01-19T15:52:46.056Z,101413.52
2019-01-19T15:56:13.211Z,101407.38
2019-01-19T15:59:23.995Z,101407.48
2019-01-19T16:02:57.625Z,101412.50
2019-01-19T16:06:22.133Z,101408.84
2019-01-19T16:09:20.046Z,101395.40
2019-01-19T16:12:30.107Z,101409.80
2019-01-19T16:15:27.232Z,101408.43
2019-01-19T16:18:42.958Z,101404.89
2019-01-19T16:21:36.099Z,101404.89
2019-01-19T16:25:06.403Z,101407.84
2019-01-19T16:28:28.405Z,101410.83
2019-01-19T16:31:44.184Z,101404.15
2019-01-19T16:35:05.746Z,101404.50
2019-01-19T16:38:18.965Z,101402.91
2019-01-19T16:41:37.355Z,101407.91
2019-01-19T16:44:47.310Z,101408.80
2019-01-19T16:47:48.492Z,101405.39
2019-01-19T16:50:56.110Z,101401.47
2019-01-19T16:53:45.432Z,101404.67
2019-01-19T16:56:40.016Z,101403.99
2019-01-19T17:00:02.200Z,101402.80
2019-01-19T17:03:15.627Z,101402.91
2019-01-19T17:06:22.057Z,101395.60
2019-01-19T17:09:32.915Z,101397.69
2019-01-19T17:12:38.249Z,101403.34
2019-01-19T17:15:50.366Z,101395.16
2019-01-19T17:19:02.641Z,101394.72
2019-01-19T17:22:21.123Z,101395.05
2019-01-19T17:25:06.778Z,101390.75
2019-01-19T17:27:55.813Z,101397.70
2019-01-19T17:31:26.440Z,101396.10
2019-01-19T17:34:45.051Z,101391.42
2019-01-19T17:37:46.148Z,101391.66
2019-01-19T17:40:47.503Z,101385.28
2019-01-19T17:43:55.630Z,101392.87
2019-01-19T17:47:26.188Z,101395.20
2019-01-19T17:50:45.883Z,101389.73
2019-01-19T17:53:45.958Z,101389.05
2019-01-19T17:56:58.624Z,101394.47
2019-01-19T18:00:02.884Z,101395.11
2019-01-19T18:03:06.501Z,101395.72
2019-01-19T18:06:09.823Z,101392.98
2019-01-19T18:09:15.175Z,101396.59
2019-01-19T18:12:22.149Z,101393.17
2019-01-19T18:15:39.805Z,101393.78
2019-01-19T18:19:25.781Z,101390.50
2019-01-19T18:22:35.782Z,101392.58
2019-01-19T18:25:21.278Z,101394.89
2019-01-19T18:28:20.624Z,101392.13
2019-01-19T18:31:20.582Z,101389.39
2019-01-19T18:34:09.635Z,101395.73
2019-01-19T18:37:17.578Z,101390.64
2019-01-19T18:40:09.116Z,101385.69
2019-01-19T18:43:23.187Z,101383.97
2019-01-19T18:46:29.340Z,101387.17
2019-01-19T18:49:16.547Z,101384.67
2019-01-19T18:52:09.241Z,101385.04
2019-01-19T18:55:07.268Z,101386.20
2019-01-19T18:58:20.933Z,101378.42
2019-01-19T19:01:30.413Z,101376.06
2019-01-19T19:05:04.052Z,101377.36
2019-01-19T19:07:58.832Z,101375.00
2019-01-19T19:11:13.143Z,101376.94
2019-01-19T19:14:13.555Z,101376.39
2019-01-19T19:17:01.137Z,101377.16
2019-01-19T19:20:02.995Z,101372.73
2019-01-19T19:22:48.704Z,101377.08
2019-01-19T19:25:45.853Z,101371.38
2019-01-19T19:29:04.391Z,101376.80
2019-01-19T19:32:05.363Z,101375.96
2019-01-19T19:35:31.146Z,101378.55
2019-01-19T19:38:44.623Z,101379.93
2019-01-19T19:41:52.837Z,101378.72
2019-01-19T19:44:52.128Z,101379.73
2019-01-19T19:47:50.647Z,101379.17
2019-01-19T19:50:51.439Z,101375.01
2019-01-19T19:53:22.733Z,101375.79
2019-01-19T19:55:52.475Z,101374.72
2019-01-19T19:58:23.848Z,101375.47
2019-01-19T20:00:55.277Z,101372.36
2019-01-19T20:03:26.801Z,101373.11
2019-01-19T20:05:58.354Z,101370.00
2019-01-19T20:08:30.107Z,101375.17
2019-01-19T20:11:01.803Z,101376.33
2019-01-19T20:13:33.245Z,101378.00
2019-01-19T20:16:04.628Z,101375.27
2019-01-19T20:18:36.136Z,101368.66
2019-01-19T20:21:08.004Z,101369.39
2019-01-19T20:23:39.551Z,101362.78
2019-01-19T20:26:11.006Z,101367.03
2019-01-19T20:28:42.393Z,101369.48
2019-01-19T20:31:14.848Z,101364.53
2019-01-19T20:33:46.394Z,101366.97
2019-01-19T20:36:17.743Z,101368.13
2019-01-19T20:38:51.331Z,101362.80
2019-01-19T20:41:22.943Z,101365.24
2019-01-19T20:43:54.268Z,101360.67
2019-01-19T20:46:25.973Z,101367.88
2019-01-19T20:48:57.570Z,101369.80
2019-01-19T20:51:29.209Z,101364.34
2019-01-19T20:54:00.817Z,101360.28
2019-01-19T20:56:32.430Z,101361.06
2019-01-19T20:59:04.083Z,101360.36
2019-01-19T21:01:35.488Z,101354.89
2019-01-19T21:04:07.069Z,101362.52
2019-01-19T21:06:39.534Z,101365.84
2019-01-19T21:09:11.974Z,101364.77
2019-01-19T21:11:43.278Z,101371.64
2019-01-19T21:14:14.409Z,101365.41
2019-01-19T21:16:45.738Z,101366.14
2019-01-19T21:19:17.026Z,101367.30
2019-01-19T21:21:48.207Z,101367.92
2019-01-19T21:24:19.482Z,101369.03
2019-01-19T21:26:50.762Z,101364.72
2019-01-19T21:29:22.166Z,101362.36
2019-01-19T21:31:53.378Z,101364.24
2019-01-19T21:34:24.773Z,101364.31
2019-01-19T21:36:55.983Z,101364.17
2019-01-19T21:39:27.174Z,101360.66
2019-01-19T21:41:58.462Z,101361.29
2019-01-19T21:44:29.745Z,101360.73
2019-01-19T21:47:00.972Z,101358.92
2019-01-19T21:49:34.801Z,101356.20
2019-01-19T21:52:06.404Z,101354.34
2019-01-19T21:54:37.733Z,101351.09
2019-01-19T21:57:08.954Z,101357.93
2019-01-19T21:59:40.150Z,101357.16
2019-01-19T22:02:11.343Z,101354.42
2019-01-19T22:04:42.635Z,101362.55
2019-01-19T22:07:13.828Z,101352.44
2019-01-19T22:09:45.149Z,101352.50
2019-01-19T22:12:16.360Z,101355.50
2019-01-19T22:14:47.557Z,101359.23
2019-01-19T22:17:18.746Z,101349.99
2019-01-19T22:19:51.028Z,101353.50
2019-01-19T22:22:22.192Z,101350.41
2019-01-19T22:24:53.388Z,101348.55
2019-01-19T22:27:24.802Z,101348.04
2019-01-19T22:29:56.025Z,101349.33
2019-01-19T22:32:27.339Z,101352.28
2019-01-19T22:34:58.624Z,101353.58
2019-01-19T22:37:29.811Z,101349.55
2019-01-19T22:40:01.755Z,101354.16
2019-01-19T22:42:33.159Z,101354.94
2019-01-19T22:45:05.674Z,101346.89
2019-01-19T22:47:36.924Z,101348.00
2019-01-19T22:50:11.022Z,101349.92
2019-01-19T22:52:42.210Z,101342.91
2019-01-19T22:55:13.462Z,101345.19
2019-01-19T22:57:44.743Z,101339.50
2019-01-19T23:00:29.096Z,101338.44
2019-01-19T23:03:01.949Z,101341.39
2019-01-19T23:05:33.326Z,101341.98
2019-01-19T23:08:04.797Z,101333.70
2019-01-19T23:10:36.128Z,101335.22
2019-01-19T23:13:07.790Z,101336.52
2019-01-19T23:15:39.217Z,101338.02
2019-01-19T23:18:10.591Z,101340.09
2019-01-19T23:20:41.771Z,101336.28
2019-01-19T23:23:12.979Z,101341.81
2019-01-19T23:25:44.469Z,101331.70
2019-01-19T23:28:15.809Z,101332.44
2019-01-19T23:30:47.094Z,101328.20
2019-01-19T23:33:18.249Z,101325.83
2019-01-19T23:35:49.614Z,101326.76
2019-01-19T23:38:20.758Z,101327.91
2019-01-19T23:40:51.991Z,101330.48
2019-01-19T23:43:23.309Z,101328.27
2019-01-19T23:45:54.469Z,101321.66
2019-01-19T23:48:25.771Z,101330.70
2019-01-19T23:50:56.976Z,101327.97
2019-01-19T23:53:28.220Z,101327.41
2019-01-19T23:55:59.400Z,101320.81
2019-01-19T23:58:30.609Z,101324.68
